Aeroporto :
LOGIN :

Iscrizione | Disclaimer

   EN    FR    IT 

 










Sommario :    VFR   VFR Marginale   IFR   IFR Intensivo   IFR Molto Intensivo
Visibilità : 
Base nubi : 
>= 8 km
>= 3000ft
5 / 8 km
1000 / 3000 ft
1500m / 5 km
500 / 1000 ft
800 / 1500m
200 / 500 ft
< 800m
< 200 ft
Simboli :   Temporali  Nebbia  Neve Forte  Precipitazioni Forti  Vento > 20 kt
SIGMETs :   Varie  Temporali  Ghiacco  Turbolenza  Onda orograficha  Ceneri Vulcaniche






- Altitudine del aeroporto : 776 ft
- Codice IATA : RMS


ETAR - Ramstein Air Base

ULTIMO METAR :
  • 241456Z AUTO 27009KT 9999 SCT040 21/12 A3003 RMK AO2 SLP170 T02120121 57014 $

METARs OBSOLETI :
  • 241356Z AUTO 26005KT 9999 OVC041 20/12 A3005 RMK AO2 SLP177 T02030118 $
  • 241256Z AUTO 23008KT 9999 BKN039 20/11 A3007 RMK AO2 SLP184 T01990114 $

TAF TAF ETAR
Valido dal 24 a 10 ore il 25 a 16 ore UTC


240959Z 2410/2516 25010G15KT 9999 SCT023 BKN035 QNH3008INS
BECMG 2411/2412 25010G15KT 9999 BKN023 QNH3007INS
BECMG 2500/2501 VRB06KT 5000 BR SCT005 QNH3007INS
TEMPO 2502/2506 0800 FG OVC005
BECMG 2508/2509 18006KT 3200 BR BKN008 QNH3006INS
BECMG 2510/2511 18006KT 5000 BR BKN015 QNH3006INS TX21/2413Z TN07/2504Z



MetMap, La meteo Aeronautica in un colpo d'occhio ! - Copyright ORBIFLY Dicembre 2007 - Disclaimer

ORBIFLY MET'MAP TEAM :

Programmazione e sviluppo : Alexandra Zaïnal
Concezione : Baudouin d'Aumeries
Aiuto per la programmazione : Marc-Olivier Méhu
Supporto tecnico e logistico : Manuel Goepfert
Aiuto per la traduzione : Arnaldo La Scala

Contatto : metmap@orbifly.com




FONTI E CREDITI :

   NOAA